createdAt,value
2023-01-17T00:02:20.164Z,70.87
2023-01-17T00:05:05.980Z,71.13
2023-01-17T00:07:52.305Z,71.66
2023-01-17T00:10:27.502Z,73.41
2023-01-17T00:13:03.298Z,72.21
2023-01-17T00:15:32.846Z,72.54
2023-01-17T00:18:01.662Z,73.42
2023-01-17T00:20:50.581Z,73.07
2023-01-17T00:23:56.017Z,72.90
2023-01-17T00:26:24.486Z,72.72
2023-01-17T00:28:51.768Z,72.99
2023-01-17T00:31:19.068Z,73.07
2023-01-17T00:33:46.394Z,73.08
2023-01-17T00:36:13.997Z,73.47
2023-01-17T00:38:42.047Z,73.50
2023-01-17T00:41:13.978Z,73.88
2023-01-17T00:43:59.878Z,74.21
2023-01-17T00:46:46.007Z,74.13
2023-01-17T00:49:31.789Z,74.07
2023-01-17T00:52:16.986Z,74.23
2023-01-17T00:55:02.800Z,74.64
2023-01-17T00:57:49.214Z,74.71
2023-01-17T01:00:37.299Z,74.28
2023-01-17T01:03:30.782Z,74.54
2023-01-17T01:06:17.619Z,74.53
2023-01-17T01:09:02.961Z,74.53
2023-01-17T01:11:48.748Z,74.76
2023-01-17T01:14:34.586Z,74.86
2023-01-17T01:17:20.549Z,74.23
2023-01-17T01:20:06.210Z,73.02
2023-01-17T01:22:51.698Z,73.69
2023-01-17T01:25:37.415Z,74.39
2023-01-17T01:28:32.123Z,74.35
2023-01-17T01:31:22.357Z,73.61
2023-01-17T01:33:53.587Z,73.80
2023-01-17T01:36:22.585Z,73.22
2023-01-17T01:38:51.066Z,73.87
2023-01-17T01:41:19.716Z,73.75
2023-01-17T01:43:56.198Z,73.22
2023-01-17T01:46:38.021Z,73.80
2023-01-17T01:49:24.655Z,74.04
2023-01-17T01:52:01.256Z,73.84
2023-01-17T01:54:58.346Z,73.78
2023-01-17T01:57:32.443Z,74.51
2023-01-17T02:00:11.609Z,74.94
2023-01-17T02:02:40.338Z,75.16
2023-01-17T02:05:09.849Z,77.11
2023-01-17T02:08:04.766Z,77.70
2023-01-17T02:10:35.165Z,78.13
2023-01-17T02:13:04.224Z,79.26
2023-01-17T02:15:47.849Z,78.91
2023-01-17T02:18:42.556Z,80.40
2023-01-17T02:21:28.717Z,81.65
2023-01-17T02:25:02.316Z,79.73
2023-01-17T02:27:43.141Z,81.49
2023-01-17T02:30:40.965Z,82.41
2023-01-17T02:33:14.712Z,81.53
2023-01-17T02:36:24.097Z,80.44
2023-01-17T02:38:53.796Z,81.27
2023-01-17T02:41:33.785Z,80.23
2023-01-17T02:44:03.806Z,79.67
2023-01-17T02:46:32.332Z,79.69
2023-01-17T02:49:01.616Z,77.93
2023-01-17T02:51:39.073Z,77.49
2023-01-17T02:54:33.780Z,79.05
2023-01-17T02:57:31.160Z,79.86
2023-01-17T03:00:14.023Z,79.79
2023-01-17T03:02:55.860Z,79.74
2023-01-17T03:05:47.199Z,79.87
2023-01-17T03:08:16.989Z,79.64
2023-01-17T03:10:46.287Z,79.68
2023-01-17T03:13:14.953Z,80.08
2023-01-17T03:15:43.496Z,80.12
2023-01-17T03:18:16.025Z,80.76
2023-01-17T03:20:44.562Z,79.50
2023-01-17T03:23:13.047Z,78.82
2023-01-17T03:25:41.559Z,79.34
2023-01-17T03:28:09.687Z,79.58
2023-01-17T03:30:38.144Z,79.45
2023-01-17T03:33:06.591Z,79.89
2023-01-17T03:35:35.038Z,79.88
2023-01-17T03:38:03.607Z,79.32
2023-01-17T03:40:32.071Z,79.83
2023-01-17T03:43:00.530Z,80.32
2023-01-17T03:45:28.667Z,80.24
2023-01-17T03:47:57.884Z,79.67
2023-01-17T03:50:26.559Z,77.85
2023-01-17T03:52:55.066Z,77.99
2023-01-17T03:55:24.031Z,78.69
2023-01-17T03:57:52.826Z,78.55
2023-01-17T04:00:21.936Z,78.45
2023-01-17T04:02:50.676Z,78.48
2023-01-17T04:05:19.243Z,79.12
2023-01-17T04:07:47.816Z,78.40
2023-01-17T04:10:17.234Z,79.55
2023-01-17T04:12:45.645Z,78.12
2023-01-17T04:15:14.122Z,79.11
2023-01-17T04:17:42.675Z,78.31
2023-01-17T04:20:37.414Z,78.30
2023-01-17T04:23:06.186Z,76.20
2023-01-17T04:25:34.911Z,76.61
2023-01-17T04:28:04.651Z,78.47
2023-01-17T04:30:34.221Z,76.53
2023-01-17T04:33:02.947Z,76.94
2023-01-17T04:35:33.435Z,76.70
2023-01-17T04:38:02.110Z,76.64
2023-01-17T04:40:34.949Z,76.50
2023-01-17T04:43:03.414Z,77.41
2023-01-17T04:45:31.865Z,76.73
2023-01-17T04:48:07.649Z,77.17
2023-01-17T04:50:36.393Z,76.72
2023-01-17T04:53:05.004Z,76.79
2023-01-17T04:55:33.404Z,75.77
2023-01-17T04:58:01.800Z,76.22
2023-01-17T05:00:30.389Z,76.26
2023-01-17T05:02:59.457Z,75.30
2023-01-17T05:05:27.915Z,75.26
2023-01-17T05:08:00.039Z,75.40
2023-01-17T05:10:28.712Z,77.62
2023-01-17T05:13:00.987Z,76.91
2023-01-17T05:15:29.711Z,76.69
2023-01-17T05:17:58.176Z,75.35
2023-01-17T05:20:27.815Z,76.34
2023-01-17T05:22:58.183Z,76.06
2023-01-17T05:25:29.584Z,76.29
2023-01-17T05:28:00.005Z,74.86
2023-01-17T05:30:34.290Z,75.37
2023-01-17T05:33:03.057Z,74.48
2023-01-17T05:35:33.694Z,75.36
2023-01-17T05:38:02.500Z,76.74
2023-01-17T05:40:33.366Z,76.82
2023-01-17T05:43:03.105Z,75.01
2023-01-17T05:45:33.315Z,75.32
2023-01-17T05:48:02.356Z,77.26
2023-01-17T05:50:34.384Z,76.91
2023-01-17T05:53:09.581Z,77.41
2023-01-17T05:55:38.529Z,77.01
2023-01-17T05:58:07.525Z,75.32
2023-01-17T06:00:37.360Z,75.56
2023-01-17T06:03:05.935Z,75.94
2023-01-17T06:05:34.436Z,76.09
2023-01-17T06:08:02.998Z,75.99
2023-01-17T06:10:31.799Z,76.25
2023-01-17T06:13:12.650Z,76.84
2023-01-17T06:15:41.423Z,77.36
2023-01-17T06:18:15.940Z,76.59
2023-01-17T06:20:44.923Z,77.33
2023-01-17T06:23:15.592Z,77.32
2023-01-17T06:25:46.975Z,75.10
2023-01-17T06:28:20.906Z,75.25
2023-01-17T06:30:49.758Z,75.01
2023-01-17T06:33:18.585Z,74.78
2023-01-17T06:35:51.784Z,73.81
2023-01-17T06:38:20.507Z,74.03
2023-01-17T06:40:49.161Z,73.69
2023-01-17T06:43:18.045Z,74.80
2023-01-17T06:45:46.528Z,73.92
2023-01-17T06:48:15.187Z,75.45
2023-01-17T06:50:43.908Z,72.66
2023-01-17T06:53:12.330Z,71.87
2023-01-17T06:55:42.573Z,72.33
2023-01-17T06:58:11.406Z,73.01
2023-01-17T07:00:41.031Z,72.77
2023-01-17T07:03:24.717Z,73.05
2023-01-17T07:05:53.383Z,71.87
2023-01-17T07:08:22.333Z,70.92
2023-01-17T07:10:51.151Z,72.18
2023-01-17T07:13:19.661Z,72.00
2023-01-17T07:15:48.194Z,71.02
2023-01-17T07:18:20.628Z,72.87
2023-01-17T07:20:49.177Z,75.57
2023-01-17T07:23:18.692Z,72.72
2023-01-17T07:25:59.482Z,74.36
2023-01-17T07:28:29.240Z,73.89
2023-01-17T07:30:57.640Z,73.53
2023-01-17T07:33:26.151Z,71.89
2023-01-17T07:35:54.556Z,72.78
2023-01-17T07:38:23.049Z,70.42
2023-01-17T07:40:51.559Z,71.10
2023-01-17T07:43:19.975Z,72.07
2023-01-17T07:45:51.944Z,71.96
2023-01-17T07:48:22.752Z,72.12
2023-01-17T07:50:58.873Z,72.39
2023-01-17T07:53:30.481Z,71.27
2023-01-17T07:56:03.612Z,73.56
2023-01-17T07:58:33.018Z,72.22
2023-01-17T08:01:11.130Z,71.43
2023-01-17T08:03:40.763Z,71.67
2023-01-17T08:06:26.750Z,71.17
2023-01-17T08:08:57.084Z,70.30
2023-01-17T08:11:25.849Z,70.70
2023-01-17T08:13:57.447Z,73.50
2023-01-17T08:16:26.958Z,72.31
2023-01-17T08:18:56.858Z,69.66
2023-01-17T08:21:25.719Z,71.21
2023-01-17T08:23:54.407Z,70.74
2023-01-17T08:26:23.633Z,70.71
2023-01-17T08:29:00.917Z,72.13
2023-01-17T08:31:34.965Z,71.59
2023-01-17T08:34:03.486Z,71.68
2023-01-17T08:36:32.310Z,70.65
2023-01-17T08:39:00.959Z,69.78
2023-01-17T08:41:29.412Z,69.38
2023-01-17T08:43:58.001Z,70.76
2023-01-17T08:46:27.007Z,69.02
2023-01-17T08:48:58.780Z,70.23
2023-01-17T08:51:32.780Z,68.63
2023-01-17T08:54:02.070Z,68.73
2023-01-17T08:56:30.454Z,67.26
2023-01-17T08:58:58.877Z,69.27
2023-01-17T09:01:27.375Z,69.41
2023-01-17T09:03:55.902Z,69.55
2023-01-17T09:06:24.314Z,69.31
2023-01-17T09:08:54.823Z,69.68
2023-01-17T09:11:23.264Z,71.04
2023-01-17T09:13:51.647Z,71.51
2023-01-17T09:16:20.087Z,68.85
2023-01-17T09:18:48.595Z,67.93
2023-01-17T09:21:19.846Z,67.02
2023-01-17T09:23:48.608Z,68.36
2023-01-17T09:26:29.884Z,68.39
2023-01-17T09:28:58.724Z,67.62
2023-01-17T09:31:28.108Z,66.99
2023-01-17T09:33:58.705Z,67.19
2023-01-17T09:36:29.153Z,66.59
2023-01-17T09:38:59.242Z,65.43
2023-01-17T09:41:35.370Z,67.04
2023-01-17T09:44:47.697Z,64.44
2023-01-17T09:47:43.864Z,64.16
2023-01-17T09:50:34.066Z,65.23
2023-01-17T09:53:12.660Z,65.57
2023-01-17T09:56:07.744Z,63.69
2023-01-17T09:59:03.369Z,62.96
2023-01-17T10:01:44.426Z,63.53
2023-01-17T10:04:18.536Z,64.19
2023-01-17T10:07:05.541Z,65.11
2023-01-17T10:10:24.303Z,63.29
2023-01-17T10:13:34.445Z,63.91
2023-01-17T10:16:42.701Z,63.83
2023-01-17T10:19:53.939Z,64.32
2023-01-17T10:22:25.036Z,63.43
2023-01-17T10:25:14.201Z,63.25
2023-01-17T10:27:59.301Z,64.49
2023-01-17T10:30:38.100Z,65.00
2023-01-17T10:33:19.643Z,64.78
2023-01-17T10:35:57.864Z,64.43
2023-01-17T10:38:43.120Z,64.25
2023-01-17T10:41:41.511Z,64.60
2023-01-17T10:44:42.282Z,65.02
2023-01-17T10:47:13.474Z,65.06
2023-01-17T10:49:50.292Z,65.48
2023-01-17T10:52:30.506Z,65.18
2023-01-17T10:55:48.527Z,65.12
2023-01-17T10:58:18.410Z,65.42
2023-01-17T11:01:12.333Z,64.38
2023-01-17T11:03:42.263Z,63.57
2023-01-17T11:06:28.402Z,64.42
2023-01-17T11:08:59.459Z,64.79
2023-01-17T11:11:49.300Z,64.55
2023-01-17T11:14:22.045Z,64.90
2023-01-17T11:17:07.676Z,65.36
2023-01-17T11:19:38.652Z,64.78
2023-01-17T11:22:09.381Z,64.97
2023-01-17T11:24:48.720Z,65.32
2023-01-17T11:27:33.137Z,64.42
2023-01-17T11:30:20.715Z,64.50
2023-01-17T11:32:55.062Z,64.26
2023-01-17T11:35:25.600Z,64.19
2023-01-17T11:38:19.236Z,63.50
2023-01-17T11:40:49.872Z,63.45
2023-01-17T11:43:29.710Z,62.51
2023-01-17T11:46:18.824Z,63.05
2023-01-17T11:48:59.609Z,63.16
2023-01-17T11:51:41.407Z,63.38
2023-01-17T11:54:30.024Z,62.37
2023-01-17T11:57:02.948Z,62.30
2023-01-17T11:59:38.818Z,62.49
2023-01-17T12:02:25.819Z,62.70
2023-01-17T12:05:25.365Z,61.39
2023-01-17T12:08:12.480Z,61.76
2023-01-17T12:11:22.072Z,61.63
2023-01-17T12:14:20.520Z,60.73
2023-01-17T12:17:26.489Z,60.56
2023-01-17T12:20:06.192Z,60.16
2023-01-17T12:22:49.673Z,59.96
2023-01-17T12:26:03.905Z,59.88
2023-01-17T12:29:15.254Z,59.68
2023-01-17T12:32:40.254Z,61.01
2023-01-17T12:35:20.149Z,60.59
2023-01-17T12:38:05.003Z,60.45
2023-01-17T12:40:33.791Z,60.50
2023-01-17T12:43:35.185Z,61.09
2023-01-17T12:46:13.780Z,59.69
2023-01-17T12:48:42.227Z,60.16
2023-01-17T12:51:18.141Z,60.51
2023-01-17T12:54:19.602Z,59.34
2023-01-17T12:56:54.522Z,58.94
2023-01-17T13:00:04.603Z,59.83
2023-01-17T13:03:36.253Z,60.96
2023-01-17T13:06:07.503Z,61.54
2023-01-17T13:08:46.393Z,61.57
2023-01-17T13:11:44.166Z,60.86
2023-01-17T13:14:12.354Z,60.80
2023-01-17T13:17:01.500Z,60.48
2023-01-17T13:19:43.273Z,60.89
2023-01-17T13:22:17.479Z,61.50
2023-01-17T13:25:00.692Z,60.18
2023-01-17T13:27:52.429Z,60.46
2023-01-17T13:30:43.287Z,61.21
2023-01-17T13:33:41.089Z,61.43
2023-01-17T13:36:22.820Z,60.05
2023-01-17T13:38:55.977Z,60.61
2023-01-17T13:41:55.778Z,60.72
2023-01-17T13:44:30.070Z,61.34
2023-01-17T13:47:01.776Z,60.14
2023-01-17T13:49:36.731Z,58.91
2023-01-17T13:52:27.627Z,59.32
2023-01-17T13:55:02.614Z,60.05
2023-01-17T13:57:40.271Z,59.25
2023-01-17T14:00:16.429Z,58.96
2023-01-17T14:02:46.475Z,58.49
2023-01-17T14:05:56.454Z,59.26
2023-01-17T14:08:28.758Z,58.78
2023-01-17T14:11:13.266Z,57.24
2023-01-17T14:13:53.035Z,57.91
2023-01-17T14:16:31.358Z,57.40
2023-01-17T14:18:59.923Z,55.88
2023-01-17T14:21:32.336Z,56.62
2023-01-17T14:24:04.929Z,57.46
2023-01-17T14:26:49.718Z,56.98
2023-01-17T14:29:58.614Z,55.51
2023-01-17T14:32:36.813Z,56.22
2023-01-17T14:35:09.130Z,56.19
2023-01-17T14:37:52.355Z,56.43
2023-01-17T14:40:33.474Z,56.21
2023-01-17T14:43:14.490Z,57.02
2023-01-17T14:45:44.500Z,57.00
2023-01-17T14:48:23.409Z,55.47
2023-01-17T14:50:54.181Z,54.04
2023-01-17T14:53:33.208Z,53.02
2023-01-17T14:56:12.436Z,54.23
2023-01-17T14:58:41.266Z,55.85
2023-01-17T15:01:20.565Z,55.06
2023-01-17T15:03:56.827Z,55.94
2023-01-17T15:06:40.676Z,54.87
2023-01-17T15:09:22.367Z,55.32
2023-01-17T15:11:53.020Z,54.85
2023-01-17T15:14:29.969Z,55.27
2023-01-17T15:16:58.083Z,56.95
2023-01-17T15:19:26.162Z,55.12
2023-01-17T15:21:55.933Z,55.69
2023-01-17T15:24:34.444Z,56.01
2023-01-17T15:27:03.299Z,56.29
2023-01-17T15:29:36.512Z,56.63
2023-01-17T15:32:07.056Z,57.15
2023-01-17T15:34:38.958Z,56.53
2023-01-17T15:37:26.571Z,57.77
2023-01-17T15:40:17.097Z,57.80
2023-01-17T15:42:48.762Z,58.08
2023-01-17T15:45:22.086Z,57.19
2023-01-17T15:47:50.557Z,57.79
2023-01-17T15:50:22.453Z,58.57
2023-01-17T15:52:53.404Z,58.96
2023-01-17T15:55:31.625Z,59.14
2023-01-17T15:58:00.022Z,58.39
2023-01-17T16:00:39.228Z,58.77
2023-01-17T16:03:30.370Z,58.21
2023-01-17T16:06:02.898Z,58.70
2023-01-17T16:08:39.602Z,57.67
2023-01-17T16:11:09.654Z,58.32
2023-01-17T16:13:42.182Z,58.57
2023-01-17T16:16:17.525Z,58.38
2023-01-17T16:18:47.649Z,58.47
2023-01-17T16:21:24.386Z,58.70
2023-01-17T16:23:53.040Z,59.25
2023-01-17T16:26:22.023Z,59.53
2023-01-17T16:28:51.136Z,59.94
2023-01-17T16:31:19.980Z,60.62
2023-01-17T16:33:51.120Z,60.23
2023-01-17T16:36:21.285Z,60.65
2023-01-17T16:38:52.170Z,60.01
2023-01-17T16:41:21.387Z,60.03
2023-01-17T16:44:03.003Z,59.54
2023-01-17T16:46:31.840Z,59.00
2023-01-17T16:49:03.143Z,60.49
2023-01-17T16:51:32.035Z,59.69
2023-01-17T16:54:02.299Z,58.84
2023-01-17T16:56:30.877Z,58.83
2023-01-17T16:58:59.423Z,59.12
2023-01-17T17:01:28.049Z,60.69
2023-01-17T17:03:56.806Z,59.97
2023-01-17T17:06:25.356Z,59.99
2023-01-17T17:08:53.777Z,59.59
2023-01-17T17:11:24.658Z,60.10
2023-01-17T17:13:53.444Z,60.18
2023-01-17T17:16:29.964Z,61.57
2023-01-17T17:19:07.630Z,62.53
2023-01-17T17:21:37.979Z,64.33
2023-01-17T17:24:06.801Z,64.33
2023-01-17T17:26:37.651Z,64.25
2023-01-17T17:29:10.522Z,64.05
2023-01-17T17:31:41.655Z,63.34
2023-01-17T17:34:13.567Z,63.01
2023-01-17T17:36:42.465Z,63.06
2023-01-17T17:39:14.771Z,63.23
2023-01-17T17:41:45.700Z,64.08
2023-01-17T17:44:14.489Z,65.69
2023-01-17T17:46:43.318Z,66.41
2023-01-17T17:49:11.941Z,67.22
2023-01-17T17:51:41.288Z,68.11
2023-01-17T17:54:14.187Z,67.50
2023-01-17T17:56:46.512Z,68.77
2023-01-17T17:59:18.369Z,68.23
2023-01-17T18:01:48.347Z,67.76
2023-01-17T18:04:16.962Z,67.12
2023-01-17T18:06:45.581Z,67.50
2023-01-17T18:09:14.668Z,67.92
2023-01-17T18:11:45.083Z,67.59
2023-01-17T18:14:16.118Z,67.75
2023-01-17T18:16:45.632Z,67.09
2023-01-17T18:19:22.685Z,66.13
2023-01-17T18:21:52.121Z,67.50
2023-01-17T18:24:25.953Z,69.49
2023-01-17T18:26:57.629Z,70.27
2023-01-17T18:29:28.005Z,69.67
2023-01-17T18:31:56.918Z,70.30
2023-01-17T18:34:29.394Z,69.74
2023-01-17T18:36:58.727Z,69.54
2023-01-17T18:39:30.113Z,71.09
2023-01-17T18:41:59.063Z,71.34
2023-01-17T18:44:27.909Z,71.88
2023-01-17T18:46:58.650Z,72.13
2023-01-17T18:49:27.265Z,71.59
2023-01-17T18:51:55.722Z,71.29
2023-01-17T18:54:24.243Z,71.65
2023-01-17T18:56:52.784Z,72.79
2023-01-17T18:59:23.655Z,73.14
2023-01-17T19:01:52.251Z,73.14
2023-01-17T19:04:21.549Z,73.32
2023-01-17T19:06:50.131Z,74.01
2023-01-17T19:09:19.513Z,73.15
2023-01-17T19:11:48.047Z,72.81
2023-01-17T19:14:16.651Z,72.52
2023-01-17T19:16:45.375Z,72.51
2023-01-17T19:19:16.512Z,72.05
2023-01-17T19:21:45.222Z,71.63
2023-01-17T19:24:14.328Z,71.52
2023-01-17T19:26:43.417Z,71.39
2023-01-17T19:29:12.178Z,70.88
2023-01-17T19:31:43.142Z,70.71
2023-01-17T19:34:14.053Z,70.98
2023-01-17T19:36:42.812Z,72.89
2023-01-17T19:39:12.444Z,73.40
2023-01-17T19:41:45.967Z,74.47
2023-01-17T19:44:15.905Z,74.09
2023-01-17T19:46:46.101Z,73.87
2023-01-17T19:49:23.972Z,74.40
2023-01-17T19:51:52.653Z,74.84
2023-01-17T19:54:21.321Z,75.41
2023-01-17T19:56:53.748Z,75.06
2023-01-17T19:59:22.689Z,74.98
2023-01-17T20:01:51.340Z,74.41
2023-01-17T20:04:20.444Z,73.99
2023-01-17T20:06:50.626Z,73.96
2023-01-17T20:09:19.056Z,74.00
2023-01-17T20:11:48.841Z,76.28
2023-01-17T20:14:17.405Z,76.85
2023-01-17T20:16:47.648Z,76.51
2023-01-17T20:19:16.959Z,75.91
2023-01-17T20:21:45.451Z,75.41
2023-01-17T20:24:16.345Z,75.09
2023-01-17T20:26:44.943Z,75.04
2023-01-17T20:29:16.340Z,75.06
2023-01-17T20:31:45.986Z,77.03
2023-01-17T20:34:18.687Z,77.27
2023-01-17T20:36:47.775Z,77.63
2023-01-17T20:39:16.694Z,76.81
2023-01-17T20:41:46.223Z,75.67
2023-01-17T20:44:16.622Z,75.14
2023-01-17T20:46:45.575Z,76.43
2023-01-17T20:49:18.887Z,77.48
2023-01-17T20:51:47.889Z,76.85
2023-01-17T20:54:19.299Z,75.94
2023-01-17T20:56:48.742Z,74.93
2023-01-17T20:59:21.696Z,73.22
2023-01-17T21:01:50.918Z,73.47
2023-01-17T21:04:25.585Z,72.84
2023-01-17T21:06:57.876Z,72.92
2023-01-17T21:09:26.253Z,72.91
2023-01-17T21:12:01.199Z,72.98
2023-01-17T21:14:30.329Z,73.27
2023-01-17T21:16:58.772Z,73.42
2023-01-17T21:19:27.327Z,73.58
2023-01-17T21:21:56.239Z,73.13
2023-01-17T21:24:24.685Z,73.18
2023-01-17T21:26:53.092Z,72.95
2023-01-17T21:29:23.234Z,71.94
2023-01-17T21:31:51.660Z,73.57
2023-01-17T21:34:20.053Z,74.46
2023-01-17T21:36:48.420Z,73.51
2023-01-17T21:39:19.828Z,72.72
2023-01-17T21:41:50.744Z,74.32
2023-01-17T21:44:24.444Z,75.20
2023-01-17T21:46:56.169Z,74.62
2023-01-17T21:49:25.187Z,73.95
2023-01-17T21:52:10.968Z,72.76
2023-01-17T21:54:56.733Z,73.26
2023-01-17T21:57:42.647Z,73.77
2023-01-17T22:00:15.457Z,73.52
2023-01-17T22:02:48.282Z,73.18
2023-01-17T22:05:18.536Z,73.50
2023-01-17T22:08:02.305Z,73.44
2023-01-17T22:10:30.956Z,73.16
2023-01-17T22:12:59.502Z,73.15
2023-01-17T22:15:28.026Z,73.03
2023-01-17T22:17:56.765Z,72.44
2023-01-17T22:20:25.445Z,72.42
2023-01-17T22:22:53.967Z,71.98
2023-01-17T22:25:23.321Z,71.50
2023-01-17T22:27:51.810Z,71.53
2023-01-17T22:30:19.981Z,71.65
2023-01-17T22:32:48.404Z,71.42
2023-01-17T22:35:16.889Z,71.37
2023-01-17T22:37:45.366Z,71.20
2023-01-17T22:40:14.060Z,71.39
2023-01-17T22:42:42.484Z,71.20
2023-01-17T22:45:11.293Z,71.32
2023-01-17T22:47:40.457Z,71.26
2023-01-17T22:50:09.334Z,72.15
2023-01-17T22:52:37.713Z,72.45
2023-01-17T22:55:06.878Z,74.07
2023-01-17T22:57:35.275Z,73.10
2023-01-17T23:00:14.520Z,74.14
2023-01-17T23:02:43.717Z,74.63
2023-01-17T23:05:12.675Z,75.70
2023-01-17T23:07:44.308Z,77.00
2023-01-17T23:10:34.859Z,77.69
2023-01-17T23:13:03.327Z,78.06
2023-01-17T23:15:49.206Z,78.03
2023-01-17T23:18:35.569Z,78.07
2023-01-17T23:21:05.132Z,78.83
2023-01-17T23:23:34.013Z,78.02
2023-01-17T23:26:02.833Z,78.28
2023-01-17T23:28:30.252Z,76.96
2023-01-17T23:31:04.930Z,77.20
2023-01-17T23:33:33.445Z,76.59
2023-01-17T23:36:01.876Z,77.25
2023-01-17T23:38:29.815Z,76.10
2023-01-17T23:41:25.146Z,74.80
2023-01-17T23:43:55.068Z,74.61
2023-01-17T23:46:24.581Z,74.35
2023-01-17T23:48:52.880Z,74.17
2023-01-17T23:51:21.299Z,74.37
2023-01-17T23:53:52.136Z,74.75
2023-01-17T23:56:24.655Z,75.00
2023-01-17T23:58:53.374Z,75.20
